Time;durP1;ratioP1;P1;durP2;ratioP2;P2;SDS_P1;SDS_P2;PMS_P1;PMS_P2;Temp;Humidity;BMP_temperature;BMP_pressure;BME280_temperature;BME280_humidity;BME280_pressure;Samples;Min_cycle;Max_cycle;Signal;HPM_P1;HPM_P2
2023/12/22 00:01:02;;;;;;;20.20;11.30;;;;;;;2.64;70.90;96806.83;107149;1257;60421;-38
2023/12/22 00:03:29;;;;;;;17.80;10.90;;;;;;;2.60;71.01;96807.92;107108;1257;73929;-38
2023/12/22 00:05:57;;;;;;;17.50;10.50;;;;;;;2.56;71.12;96805.83;107095;1257;67580;-38
2023/12/22 00:08:24;;;;;;;17.00;10.30;;;;;;;2.60;71.11;96801.73;107079;1260;72416;-38
2023/12/22 00:10:52;;;;;;;18.00;9.90;;;;;;;2.65;71.06;96798.27;107130;1258;60497;-38
2023/12/22 00:13:19;;;;;;;16.80;10.60;;;;;;;2.62;71.18;96796.34;107112;1257;60307;-38
2023/12/22 00:15:47;;;;;;;15.30;10.80;;;;;;;2.59;71.42;96788.73;107127;1257;73794;-38
2023/12/22 00:18:14;;;;;;;18.00;11.00;;;;;;;2.56;71.35;96779.31;107108;1257;67865;-38
2023/12/22 00:20:42;;;;;;;14.80;10.80;;;;;;;2.54;71.50;96773.64;107111;1257;72716;-38
2023/12/22 00:23:10;;;;;;;18.70;10.70;;;;;;;2.50;71.55;96766.05;107081;1258;60329;-38
2023/12/22 00:25:37;;;;;;;16.00;10.20;;;;;;;2.48;71.69;96763.59;107105;1257;59585;-38
2023/12/22 00:28:05;;;;;;;16.40;10.30;;;;;;;2.56;71.74;96761.59;107095;1262;73854;-38
2023/12/22 00:30:32;;;;;;;18.60;10.90;;;;;;;2.60;71.54;96761.10;107126;1257;66752;-38
2023/12/22 00:33:00;;;;;;;18.80;11.30;;;;;;;2.57;71.35;96755.11;107087;1257;71862;-38
2023/12/22 00:35:27;;;;;;;15.80;10.30;;;;;;;2.54;71.71;96751.03;107079;1258;60443;-38
2023/12/22 00:37:55;;;;;;;17.70;11.70;;;;;;;2.48;71.65;96745.79;107178;1257;60358;-38
2023/12/22 00:40:22;;;;;;;20.50;10.90;;;;;;;2.46;71.59;96740.50;107139;1257;72548;-38
2023/12/22 00:42:50;;;;;;;16.90;10.70;;;;;;;2.44;71.92;96731.00;104914;1257;1003524;-38
2023/12/22 00:45:17;;;;;;;20.30;10.80;;;;;;;2.50;71.75;96722.64;107105;1260;72430;-38
2023/12/22 00:47:45;;;;;;;21.70;11.90;;;;;;;2.52;71.76;96726.48;107141;1260;60460;-38
2023/12/22 00:50:13;;;;;;;22.70;11.90;;;;;;;2.52;71.63;96729.23;107146;1257;59572;-39
2023/12/22 00:52:41;;;;;;;17.80;11.50;;;;;;;2.49;71.61;96724.02;107157;1257;73801;-38
2023/12/22 00:55:08;;;;;;;18.00;11.40;;;;;;;2.47;71.76;96720.73;107147;1257;67610;-38
2023/12/22 00:57:36;;;;;;;19.10;11.70;;;;;;;2.44;71.91;96715.27;107137;1258;71956;-38
2023/12/22 01:00:05;;;;;;;25.30;12.00;;;;;;;2.45;71.80;96705.65;107140;1257;60233;-38
2023/12/22 01:02:33;;;;;;;18.50;10.90;;;;;;;2.53;71.74;96707.23;107208;1258;60006;-38
2023/12/22 01:05:00;;;;;;;18.70;11.40;;;;;;;2.57;71.72;96703.38;107165;1257;72602;-38
2023/12/22 01:07:28;;;;;;;18.60;11.10;;;;;;;2.57;71.58;96698.17;107150;1257;68238;-38
2023/12/22 01:10:01;;;;;;;17.30;11.40;;;;;;;2.56;71.48;96688.02;107163;1260;72494;-38
2023/12/22 01:12:28;;;;;;;19.50;11.90;;;;;;;2.52;71.62;96683.92;107121;1260;60482;-38
2023/12/22 01:14:56;;;;;;;24.60;12.50;;;;;;;2.42;71.70;96674.30;107154;1257;60361;-38
2023/12/22 01:17:24;;;;;;;18.50;11.10;;;;;;;2.43;71.68;96677.83;107162;1257;73868;-38
2023/12/22 01:19:52;;;;;;;20.70;11.10;;;;;;;2.45;71.75;96677.84;107169;1257;66636;-38
2023/12/22 01:22:20;;;;;;;18.10;11.10;;;;;;;2.49;71.79;96674.42;107112;1262;72428;-39
2023/12/22 01:24:47;;;;;;;19.70;10.90;;;;;;;2.48;71.87;96672.13;107147;1257;60479;-39
2023/12/22 01:27:15;;;;;;;18.20;11.10;;;;;;;2.46;71.78;96670.91;107150;1257;60395;-39
2023/12/22 01:29:42;;;;;;;17.20;10.80;;;;;;;2.42;71.93;96666.82;107150;1257;72717;-39
2023/12/22 01:32:10;;;;;;;15.30;10.70;;;;;;;2.41;71.99;96668.04;107472;1254;67879;-39
2023/12/22 01:34:37;;;;;;;18.60;10.60;;;;;;;2.40;71.91;96654.42;107453;1253;72759;-39
2023/12/22 01:37:05;;;;;;;19.90;10.90;;;;;;;2.42;71.85;96652.39;107491;1254;60552;-39
2023/12/22 01:39:32;;;;;;;16.60;10.40;;;;;;;2.48;71.66;96647.91;107599;1253;60427;-39
2023/12/22 01:42:00;;;;;;;21.10;11.20;;;;;;;2.49;71.83;96640.05;107607;1254;72547;-39
2023/12/22 01:44:27;;;;;;;18.10;11.40;;;;;;;2.49;71.69;96642.27;107579;1254;67570;-39
2023/12/22 01:46:55;;;;;;;20.40;11.30;;;;;;;2.47;71.75;96638.67;107517;1254;71449;-39
2023/12/22 01:49:22;;;;;;;17.60;10.70;;;;;;;2.45;71.86;96633.55;106759;1254;1003009;-39
2023/12/22 01:51:50;;;;;;;15.40;10.40;;;;;;;2.43;71.92;96632.21;107470;1252;60463;-39
2023/12/22 01:54:18;;;;;;;18.20;11.00;;;;;;;2.43;71.98;96624.96;107488;1254;72628;-39
2023/12/22 01:56:46;;;;;;;20.10;10.90;;;;;;;2.48;71.82;96621.70;107493;1257;67920;-39
2023/12/22 01:59:13;;;;;;;16.50;10.60;;;;;;;2.52;71.56;96621.13;107453;1252;72667;-39
2023/12/22 02:01:41;;;;;;;18.40;10.60;;;;;;;2.49;71.67;96612.46;107521;1254;60293;-39
2023/12/22 02:04:08;;;;;;;18.30;11.40;;;;;;;2.46;71.62;96607.86;107503;1254;60401;-39
2023/12/22 02:06:37;;;;;;;17.90;10.70;;;;;;;2.43;71.81;96604.87;107524;1254;72615;-39
2023/12/22 02:09:04;;;;;;;17.50;11.10;;;;;;;2.42;71.67;96622.82;107601;1254;66385;-39
2023/12/22 02:11:32;;;;;;;19.50;11.30;;;;;;;2.39;71.96;96625.16;107566;1254;72628;-39
2023/12/22 02:13:59;;;;;;;19.40;11.00;;;;;;;2.40;71.93;96615.48;107605;1254;60437;-39
2023/12/22 02:16:39;;;;;;;19.20;11.50;;;;;;;2.41;72.00;96611.90;107519;1253;60364;-39
2023/12/22 02:19:38;;;;;;;24.30;12.00;;;;;;;2.38;72.06;96605.23;107523;1253;73824;-39
2023/12/22 02:22:06;;;;;;;18.50;11.30;;;;;;;2.37;71.97;96597.89;107539;1254;67600;-39
2023/12/22 02:24:37;;;;;;;20.70;11.80;;;;;;;2.35;71.94;96585.04;107493;1259;72682;-39
2023/12/22 02:27:32;;;;;;;19.30;11.20;;;;;;;2.35;72.07;96582.83;107633;1253;60892;-39
2023/12/22 02:30:08;;;;;;;20.50;11.30;;;;;;;2.43;71.97;96575.92;107497;1259;60547;-39
2023/12/22 02:32:38;;;;;;;18.60;11.20;;;;;;;2.47;71.64;96576.79;107542;1253;71747;-39
2023/12/22 02:35:11;;;;;;;17.00;11.10;;;;;;;2.47;71.65;96569.52;107531;1254;67528;-39
2023/12/22 02:37:39;;;;;;;22.10;11.20;;;;;;;2.46;71.54;96565.47;107503;1254;72636;-39
2023/12/22 02:40:08;;;;;;;17.90;11.40;;;;;;;2.43;71.51;96558.95;107482;1254;60463;-39
2023/12/22 02:42:36;;;;;;;17.40;10.90;;;;;;;2.42;71.40;96563.69;107637;1253;60482;-39
2023/12/22 02:45:05;;;;;;;19.20;10.40;;;;;;;2.41;71.44;96560.71;107532;1259;73869;-39
2023/12/22 02:47:33;;;;;;;19.30;11.20;;;;;;;2.46;71.45;96555.01;106775;1254;1003782;-40
2023/12/22 02:50:00;;;;;;;19.60;11.10;;;;;;;2.52;71.24;96556.27;107565;1254;72331;-39
2023/12/22 02:52:28;;;;;;;18.20;11.60;;;;;;;2.53;71.07;96550.83;107471;1253;60514;-40
2023/12/22 02:54:56;;;;;;;20.20;11.20;;;;;;;2.52;71.24;96549.60;107491;1253;60175;-38
2023/12/22 02:57:23;;;;;;;18.80;11.50;;;;;;;2.52;71.26;96549.98;107474;1254;72583;-38
2023/12/22 02:59:51;;;;;;;19.80;11.70;;;;;;;2.51;70.99;96551.21;107566;1254;66413;-38
2023/12/22 03:02:18;;;;;;;22.90;11.60;;;;;;;2.49;71.06;96557.39;107599;1254;71381;-38
2023/12/22 03:04:46;;;;;;;18.50;10.90;;;;;;;2.48;71.25;96553.27;107470;1253;60867;-38
2023/12/22 03:07:14;;;;;;;17.70;10.60;;;;;;;2.51;71.52;96561.67;107522;1254;60376;-38
2023/12/22 03:09:42;;;;;;;16.40;10.20;;;;;;;2.54;71.43;96560.48;107595;1254;72577;-38
2023/12/22 03:12:09;;;;;;;18.80;10.70;;;;;;;2.54;71.33;96554.44;107585;1253;68174;-38
2023/12/22 03:14:37;;;;;;;17.90;10.90;;;;;;;2.52;71.56;96549.67;107573;1253;72686;-38
2023/12/22 03:17:05;;;;;;;17.50;11.00;;;;;;;2.49;71.81;96549.75;107510;1254;60479;-38
2023/12/22 03:19:33;;;;;;;17.40;11.70;;;;;;;2.46;71.97;96556.30;107625;1253;60530;-38
2023/12/22 03:22:00;;;;;;;17.60;10.70;;;;;;;2.43;71.99;96569.95;107557;1254;73855;-38
2023/12/22 03:24:28;;;;;;;21.10;11.30;;;;;;;2.38;72.19;96562.45;107582;1254;67667;-38
2023/12/22 03:26:56;;;;;;;16.50;10.60;;;;;;;2.49;72.18;96568.77;107594;1253;72667;-38
2023/12/22 03:29:24;;;;;;;19.10;10.70;;;;;;;2.53;71.97;96574.98;107567;1253;60437;-38
2023/12/22 03:31:51;;;;;;;17.20;10.30;;;;;;;2.52;71.99;96574.13;107516;1254;60415;-38
2023/12/22 03:34:19;;;;;;;19.90;11.90;;;;;;;2.49;72.22;96569.08;107611;1253;72992;-38
2023/12/22 03:36:48;;;;;;;21.60;11.60;;;;;;;2.46;72.38;96570.81;107519;1253;67236;-38
2023/12/22 03:39:16;;;;;;;18.90;11.40;;;;;;;2.40;72.86;96565.05;107586;1253;73135;-38
2023/12/22 03:41:44;;;;;;;22.10;11.40;;;;;;;2.40;72.96;96564.67;107593;1253;59558;-38
2023/12/22 03:44:11;;;;;;;19.70;11.30;;;;;;;2.42;73.08;96563.98;107567;1254;59861;-38
2023/12/22 03:46:39;;;;;;;22.00;11.60;;;;;;;2.39;73.43;96556.50;107559;1254;72591;-38
2023/12/22 03:49:06;;;;;;;20.20;12.00;;;;;;;2.36;73.94;96552.05;107497;1254;67716;-38
2023/12/22 03:51:34;;;;;;;20.30;11.90;;;;;;;2.33;74.44;96542.17;107493;1253;70137;-38
2023/12/22 03:54:02;;;;;;;20.00;11.60;;;;;;;2.30;74.68;96543.77;107506;1254;60894;-38
2023/12/22 03:56:29;;;;;;;20.90;11.40;;;;;;;2.33;74.78;96539.59;107519;1254;60536;-38
2023/12/22 03:58:57;;;;;;;19.10;10.90;;;;;;;2.38;75.09;96537.92;107572;1253;73836;-38
2023/12/22 04:01:25;;;;;;;17.20;11.50;;;;;;;2.40;75.39;96534.43;107482;1258;67671;-38
2023/12/22 04:03:53;;;;;;;19.10;11.60;;;;;;;2.40;75.36;96521.52;106034;1254;1003015;-38
2023/12/22 04:06:20;;;;;;;16.90;10.80;;;;;;;2.37;75.72;96517.00;107381;1256;60479;-38
2023/12/22 04:08:48;;;;;;;19.90;11.10;;;;;;;2.35;75.73;96513.24;107315;1255;60344;-38
2023/12/22 04:11:15;;;;;;;20.90;11.10;;;;;;;2.39;75.67;96510.74;107308;1256;74424;-38
2023/12/22 04:13:42;;;;;;;18.00;10.30;;;;;;;2.45;75.61;96508.48;107364;1256;65632;-38
2023/12/22 04:16:10;;;;;;;15.70;10.70;;;;;;;2.46;75.72;96510.55;107333;1256;70442;-38
2023/12/22 04:18:38;;;;;;;19.50;11.50;;;;;;;2.43;75.48;96506.33;107333;1256;60342;-38
2023/12/22 04:21:05;;;;;;;24.60;12.60;;;;;;;2.39;75.71;96500.66;107260;1256;60420;-38
2023/12/22 04:23:33;;;;;;;17.50;11.50;;;;;;;2.36;76.09;96497.82;107255;1255;73012;-38
2023/12/22 04:26:02;;;;;;;17.20;10.80;;;;;;;2.28;76.17;96488.84;107321;1260;67570;-38
2023/12/22 04:28:29;;;;;;;18.50;11.40;;;;;;;2.40;76.07;96493.48;107300;1256;72337;-39
2023/12/22 04:30:57;;;;;;;19.30;12.10;;;;;;;2.42;76.25;96494.79;107330;1255;60664;-39
2023/12/22 04:33:25;;;;;;;20.20;11.90;;;;;;;2.40;76.48;96492.11;107327;1256;60401;-39
2023/12/22 04:35:52;;;;;;;18.50;12.00;;;;;;;2.37;76.84;96489.27;107334;1256;72642;-39
2023/12/22 04:38:19;;;;;;;19.30;11.40;;;;;;;2.35;76.83;96488.04;107252;1256;67630;-39
2023/12/22 04:40:47;;;;;;;20.80;11.60;;;;;;;2.38;76.79;96478.81;107322;1256;72824;-39
2023/12/22 04:43:14;;;;;;;22.00;11.40;;;;;;;2.42;76.72;96486.92;107250;1256;60468;-39
2023/12/22 04:45:42;;;;;;;22.10;12.30;;;;;;;2.43;76.63;96489.98;107328;1255;60337;-39
2023/12/22 04:48:09;;;;;;;21.40;12.20;;;;;;;2.40;76.85;96483.71;107361;1253;73824;-39
2023/12/22 04:50:37;;;;;;;20.20;13.10;;;;;;;2.37;77.04;96477.96;107513;1253;67564;-39
2023/12/22 04:53:05;;;;;;;26.00;13.40;;;;;;;2.36;77.08;96481.55;107433;1254;71450;-39
2023/12/22 04:55:32;;;;;;;27.20;12.30;;;;;;;2.41;76.97;96478.98;107460;1253;59681;-39
2023/12/22 04:58:00;;;;;;;25.10;13.00;;;;;;;2.48;76.74;96485.88;107438;1253;60498;-38
2023/12/22 05:00:27;;;;;;;21.40;13.10;;;;;;;2.48;76.66;96485.34;107496;1253;72686;-39
2023/12/22 05:02:55;;;;;;;23.80;13.20;;;;;;;2.46;76.93;96480.30;107478;1254;67579;-39
2023/12/22 05:05:22;;;;;;;26.50;16.10;;;;;;;2.44;76.95;96478.37;107413;1253;72477;-39
2023/12/22 05:07:50;;;;;;;40.00;23.00;;;;;;;2.42;77.12;96472.63;107479;1258;60520;-39
2023/12/22 05:10:18;;;;;;;39.40;23.30;;;;;;;2.38;77.02;96477.20;107513;1253;60364;-39
2023/12/22 05:12:46;;;;;;;25.80;15.80;;;;;;;2.39;77.10;96476.74;107487;1255;72590;-39
2023/12/22 05:15:13;;;;;;;26.70;16.20;;;;;;;2.40;77.14;96475.00;107459;1255;66602;-39
2023/12/22 05:17:41;;;;;;;21.70;13.60;;;;;;;2.35;77.13;96467.34;107456;1259;72947;-39
2023/12/22 05:20:09;;;;;;;22.00;13.40;;;;;;;2.22;77.50;96455.90;107481;1254;60648;-39
2023/12/22 05:22:37;;;;;;;25.70;15.00;;;;;;;2.24;77.82;96466.37;107517;1253;60793;-39
2023/12/22 05:25:05;;;;;;;21.90;13.50;;;;;;;2.19;77.87;96465.89;107481;1253;72948;-39
2023/12/22 05:27:33;;;;;;;20.00;12.50;;;;;;;2.20;77.89;96465.29;107525;1254;67592;-39
2023/12/22 05:30:03;;;;;;;21.80;12.90;;;;;;;2.26;77.86;96461.03;106729;1254;1002540;-39
2023/12/22 05:32:30;;;;;;;20.00;13.50;;;;;;;2.25;78.11;96461.79;107442;1256;60528;-39
2023/12/22 05:34:58;;;;;;;20.30;12.00;;;;;;;2.22;78.39;96461.10;107534;1253;60342;-39
2023/12/22 05:37:25;;;;;;;18.80;12.30;;;;;;;2.16;78.57;96452.98;107470;1253;73841;-38
2023/12/22 05:39:53;;;;;;;20.90;12.50;;;;;;;2.10;78.75;96450.59;107518;1253;67898;-38
2023/12/22 05:42:21;;;;;;;20.60;13.30;;;;;;;2.14;78.79;96445.80;107514;1253;71329;-38
2023/12/22 05:44:49;;;;;;;19.20;11.50;;;;;;;2.19;78.55;96441.15;107458;1254;59441;-38
2023/12/22 05:47:17;;;;;;;19.70;13.20;;;;;;;2.19;78.80;96448.94;107445;1253;60316;-38
2023/12/22 05:49:45;;;;;;;19.40;12.00;;;;;;;2.16;78.79;96446.65;107443;1253;72545;-38
2023/12/22 05:52:13;;;;;;;22.70;13.30;;;;;;;2.15;79.16;96441.59;107496;1257;66261;-38
2023/12/22 05:54:40;;;;;;;21.00;12.90;;;;;;;2.11;78.93;96440.44;107473;1254;72752;-38
2023/12/22 05:57:08;;;;;;;19.40;12.10;;;;;;;2.07;79.13;96427.43;107496;1259;60911;-38
2023/12/22 05:59:36;;;;;;;17.10;12.40;;;;;;;2.18;78.91;96438.39;107500;1254;60358;-40
2023/12/22 06:02:03;;;;;;;20.60;12.70;;;;;;;2.16;79.11;96435.25;107504;1253;73844;-38
2023/12/22 06:04:31;;;;;;;19.00;12.30;;;;;;;2.11;79.35;96433.71;107485;1253;67562;-39
2023/12/22 06:06:59;;;;;;;26.40;16.80;;;;;;;2.10;79.67;96430.65;107485;1254;72583;-39
2023/12/22 06:09:26;;;;;;;20.00;13.70;;;;;;;2.09;79.77;96431.79;107407;1253;60508;-39
2023/12/22 06:11:54;;;;;;;18.70;11.80;;;;;;;2.11;79.76;96426.08;107512;1253;60336;-39
2023/12/22 06:14:21;;;;;;;20.80;12.90;;;;;;;2.16;79.68;96423.27;107502;1253;74163;-39
2023/12/22 06:16:49;;;;;;;16.90;12.30;;;;;;;2.15;79.92;96417.77;107450;1253;67869;-39
2023/12/22 06:19:16;;;;;;;20.40;13.30;;;;;;;2.08;80.06;96411.26;106746;1253;1002810;-39
2023/12/22 06:21:44;;;;;;;20.70;13.30;;;;;;;2.04;80.36;96409.16;107438;1253;60427;-39
2023/12/22 06:24:12;;;;;;;18.90;13.10;;;;;;;2.03;80.37;96416.41;107509;1254;60339;-38
2023/12/22 06:26:39;;;;;;;18.20;12.70;;;;;;;2.03;80.60;96418.86;107505;1253;74118;-39
2023/12/22 06:29:06;;;;;;;19.20;12.50;;;;;;;2.04;80.50;96420.77;107415;1253;66634;-39
2023/12/22 06:31:34;;;;;;;21.00;13.30;;;;;;;2.02;80.76;96418.40;107413;1253;72459;-39
2023/12/22 06:34:02;;;;;;;20.90;13.20;;;;;;;1.99;80.84;96414.18;107504;1253;60260;-39
2023/12/22 06:36:30;;;;;;;18.60;13.10;;;;;;;1.96;81.27;96412.56;107474;1253;60453;-39
2023/12/22 06:38:58;;;;;;;19.20;11.70;;;;;;;1.96;81.39;96404.48;107464;1253;72899;-38
2023/12/22 06:41:29;;;;;;;19.50;11.80;;;;;;;2.05;81.33;96398.94;107456;1253;67903;-39
2023/12/22 06:43:59;;;;;;;17.30;12.20;;;;;;;2.09;81.34;96396.36;107497;1258;71457;-38
2023/12/22 06:46:28;;;;;;;17.20;12.60;;;;;;;2.08;81.15;96391.25;107549;1254;60335;-39
2023/12/22 06:48:56;;;;;;;16.00;12.30;;;;;;;2.06;81.15;96391.63;107516;1253;60514;-39
2023/12/22 06:51:30;;;;;;;22.40;14.70;;;;;;;2.04;81.42;96397.26;107468;1254;72534;-39
2023/12/22 06:54:00;;;;;;;22.20;13.70;;;;;;;2.03;80.92;96394.05;106678;1254;1003732;-39
2023/12/22 06:56:33;;;;;;;20.60;11.80;;;;;;;2.06;81.11;96383.60;107511;1254;72647;-39
2023/12/22 06:59:01;;;;;;;19.70;11.90;;;;;;;2.06;80.95;96386.27;107527;1254;60371;-39
2023/12/22 07:01:33;;;;;;;22.20;13.30;;;;;;;2.01;81.38;96384.65;107391;1259;60518;-38
2023/12/22 07:04:02;;;;;;;21.50;12.70;;;;;;;1.98;81.70;96387.92;107442;1253;72722;-39
2023/12/22 07:06:33;;;;;;;20.70;12.50;;;;;;;1.96;81.91;96383.11;107523;1254;67539;-39
2023/12/22 07:09:11;;;;;;;17.90;11.10;;;;;;;2.01;81.66;96377.33;107451;1254;72770;-39
2023/12/22 07:11:50;;;;;;;19.90;11.60;;;;;;;2.06;81.68;96375.73;107528;1253;60332;-38
2023/12/22 07:14:18;;;;;;;18.50;11.80;;;;;;;2.03;81.93;96370.99;107413;1258;60326;-39
2023/12/22 07:16:45;;;;;;;18.20;12.10;;;;;;;2.02;81.99;96367.71;107364;1254;72693;-39
2023/12/22 07:19:13;;;;;;;18.70;12.10;;;;;;;2.00;82.30;96367.17;107488;1254;67900;-39
2023/12/22 07:21:41;;;;;;;20.00;12.50;;;;;;;1.98;82.26;96363.65;107463;1254;72692;-39
2023/12/22 07:24:13;;;;;;;16.50;11.10;;;;;;;2.01;82.29;96358.17;107502;1254;60537;-39
2023/12/22 07:26:44;;;;;;;;;;;;;;;2.07;82.44;96359.48;107547;1253;60373;-38
2023/12/22 07:29:12;;;;;;;21.30;12.40;;;;;;;2.09;82.65;96353.68;107431;1254;73780;-40
2023/12/22 07:31:40;;;;;;;18.10;12.30;;;;;;;2.07;82.68;96350.02;107485;1253;66421;-40
2023/12/22 07:34:08;;;;;;;18.10;12.10;;;;;;;2.07;82.79;96347.42;107438;1254;72663;-38
2023/12/22 07:36:36;;;;;;;16.90;11.30;;;;;;;2.12;82.66;96339.73;107477;1254;60947;-38
2023/12/22 07:39:15;;;;;;;18.90;10.90;;;;;;;2.17;82.50;96340.35;107536;1253;60394;-38
2023/12/22 07:41:44;;;;;;;17.00;11.00;;;;;;;2.18;82.50;96354.94;107500;1253;74892;-38
2023/12/22 07:44:12;;;;;;;20.20;12.50;;;;;;;2.17;82.68;96352.13;107452;1253;66620;-38
2023/12/22 07:46:41;;;;;;;14.60;10.60;;;;;;;2.14;82.85;96346.45;107418;1257;72695;-38
2023/12/22 07:49:10;;;;;;;17.00;10.30;;;;;;;2.19;82.79;96342.05;107441;1256;60827;-38
2023/12/22 07:51:38;;;;;;;14.00;9.80;;;;;;;2.27;82.54;96344.42;107272;1257;60432;-38
2023/12/22 07:54:08;;;;;;;14.70;10.50;;;;;;;2.28;82.43;96350.30;107257;1256;73850;-38
2023/12/22 07:56:35;;;;;;;17.60;11.40;;;;;;;2.25;82.76;96346.71;107299;1256;67644;-38
2023/12/22 07:59:03;;;;;;;17.90;11.00;;;;;;;2.23;82.74;96360.91;107253;1257;73183;-38
2023/12/22 08:01:49;;;;;;;17.30;10.70;;;;;;;2.20;82.78;96365.95;107187;1257;128546;-38
2023/12/22 08:07:08;;;;;;;15.10;10.60;;;;;;;2.33;82.70;96365.98;104080;1291;600366;-39
2023/12/22 08:09:35;;;;;;;16.80;10.90;;;;;;;2.34;82.61;96367.27;106508;1266;59373;-39
2023/12/22 08:12:03;;;;;;;17.30;10.50;;;;;;;2.32;82.76;96367.98;106627;1267;60023;-39
2023/12/22 08:14:32;;;;;;;15.50;10.60;;;;;;;2.29;82.74;96367.80;106794;1266;72442;-39
2023/12/22 08:16:59;;;;;;;17.90;10.50;;;;;;;2.27;82.62;96366.80;106610;1266;66797;-39
2023/12/22 08:19:27;;;;;;;17.00;11.30;;;;;;;2.30;82.57;96357.11;106731;1266;72467;-38
2023/12/22 08:21:58;;;;;;;15.90;10.90;;;;;;;2.28;82.76;96349.23;106724;1264;112269;-38
2023/12/22 08:24:29;;;;;;;15.30;11.10;;;;;;;2.23;83.11;96349.45;106918;1264;60210;-39
2023/12/22 08:26:57;;;;;;;16.50;10.80;;;;;;;2.19;83.24;96341.96;106794;1263;70775;-39
2023/12/22 08:29:24;;;;;;;17.60;11.40;;;;;;;2.20;83.33;96339.98;106809;1263;67582;-39
2023/12/22 08:31:52;;;;;;;17.90;11.60;;;;;;;2.24;83.10;96335.94;106783;1263;72774;-38
2023/12/22 08:34:19;;;;;;;18.10;11.90;;;;;;;2.22;83.33;96334.26;106793;1264;59643;-38
2023/12/22 08:36:47;;;;;;;16.60;11.30;;;;;;;2.17;83.72;96327.30;106762;1263;59497;-39
2023/12/22 08:39:14;;;;;;;17.30;11.50;;;;;;;2.15;83.77;96329.73;106768;1268;71834;-38
2023/12/22 08:41:42;;;;;;;14.10;10.00;;;;;;;2.19;83.77;96324.48;106712;1263;67895;-39
2023/12/22 08:44:10;;;;;;;15.70;10.40;;;;;;;2.25;83.68;96323.34;106759;1264;72691;-39
2023/12/22 08:46:38;;;;;;;16.90;10.80;;;;;;;2.25;83.88;96324.41;106837;1263;60066;-40
2023/12/22 08:49:07;;;;;;;15.70;10.70;;;;;;;2.24;84.07;96334.87;106827;1263;59596;-39
2023/12/22 08:51:34;;;;;;;16.00;10.90;;;;;;;2.22;84.15;96323.11;106799;1263;73004;-40
2023/12/22 08:54:04;;;;;;;17.00;10.80;;;;;;;2.26;84.02;96325.25;106823;1264;67623;-40
2023/12/22 08:56:31;;;;;;;19.60;11.60;;;;;;;2.32;83.69;96321.30;106829;1263;72672;-40
2023/12/22 08:58:59;;;;;;;19.40;11.50;;;;;;;2.33;83.68;96319.16;106808;1264;59525;-40
2023/12/22 09:01:27;;;;;;;16.10;11.60;;;;;;;2.32;83.76;96318.31;106841;1263;59273;-40
2023/12/22 09:03:54;;;;;;;19.50;10.80;;;;;;;2.30;83.79;96319.31;106807;1263;72962;-40
2023/12/22 09:06:22;;;;;;;16.50;10.60;;;;;;;2.33;83.46;96316.56;106788;1262;66786;-40
2023/12/22 09:08:50;;;;;;;19.50;11.50;;;;;;;2.38;83.41;96322.14;106744;1268;72749;-40
2023/12/22 09:11:19;;;;;;;18.50;11.50;;;;;;;2.37;83.34;96315.20;106733;1265;59726;-40
2023/12/22 09:13:47;;;;;;;14.60;9.00;;;;;;;2.35;83.66;96314.51;106841;1266;60074;-40
2023/12/22 09:16:23;;;;;;;16.20;10.40;;;;;;;2.34;83.61;96318.92;106732;1268;73045;-40
2023/12/22 09:18:51;;;;;;;14.80;10.30;;;;;;;2.38;83.54;96314.75;106673;1263;67985;-40
2023/12/22 09:21:19;;;;;;;17.10;10.40;;;;;;;2.46;83.17;96312.69;106741;1264;72454;-39
2023/12/22 09:23:46;;;;;;;15.50;11.00;;;;;;;2.49;83.36;96311.77;106706;1268;59481;-39
2023/12/22 09:26:14;;;;;;;17.60;10.40;;;;;;;2.49;83.56;96307.11;106802;1263;60186;-40
2023/12/22 09:28:42;;;;;;;15.50;10.10;;;;;;;2.45;83.41;96300.70;106797;1264;72262;-40
2023/12/22 09:31:10;;;;;;;18.50;10.80;;;;;;;2.48;83.40;96299.86;106823;1264;67908;-39
2023/12/22 09:33:38;;;;;;;17.30;10.50;;;;;;;2.53;83.18;96298.17;106870;1264;72691;-39
2023/12/22 09:36:06;;;;;;;16.20;10.70;;;;;;;2.53;83.34;96304.23;106824;1264;59701;-40
2023/12/22 09:38:34;;;;;;;19.00;11.20;;;;;;;2.49;83.64;96308.11;106849;1268;60034;-40
2023/12/22 09:41:01;;;;;;;18.80;10.60;;;;;;;2.47;84.18;96312.16;106756;1263;72509;-40
2023/12/22 09:43:29;;;;;;;16.30;10.10;;;;;;;2.50;84.10;96313.54;106631;1264;67995;-40
2023/12/22 09:45:57;;;;;;;16.80;10.30;;;;;;;2.54;84.16;96304.60;106650;1264;72448;-39
2023/12/22 09:48:27;;;;;;;18.00;11.20;;;;;;;2.52;84.38;96300.55;106632;1269;60325;-40
2023/12/22 09:50:55;;;;;;;17.80;9.90;;;;;;;2.48;84.68;96290.16;106722;1263;60070;-40
2023/12/22 09:53:22;;;;;;;16.30;10.40;;;;;;;2.46;84.96;96298.02;106755;1263;73607;-40
2023/12/22 09:55:50;;;;;;;17.90;9.50;;;;;;;2.51;85.12;96295.51;106784;1263;66775;-40
2023/12/22 09:58:17;;;;;;;14.00;8.80;;;;;;;2.56;85.13;96299.80;106780;1268;72750;-40
2023/12/22 10:00:45;;;;;;;15.30;9.80;;;;;;;2.55;85.09;96301.71;106826;1268;60178;-40
2023/12/22 10:03:14;;;;;;;13.90;9.70;;;;;;;2.52;85.61;96299.64;106754;1271;59324;-39
2023/12/22 10:05:43;;;;;;;14.90;9.10;;;;;;;2.51;85.79;96295.59;106835;1263;72825;-40
2023/12/22 10:08:10;;;;;;;12.70;8.50;;;;;;;2.57;85.64;96282.30;106828;1264;67630;-40
2023/12/22 10:10:41;;;;;;;13.50;9.00;;;;;;;2.61;85.44;96282.91;106836;1266;72599;-40
2023/12/22 10:13:09;;;;;;;12.10;8.60;;;;;;;2.60;85.64;96279.86;107338;1261;59673;-40
2023/12/22 10:15:41;;;;;;;12.80;8.60;;;;;;;2.57;85.85;96277.55;107313;1258;59606;-39
2023/12/22 10:18:09;;;;;;;10.90;7.90;;;;;;;2.56;86.07;96274.05;107215;1257;73111;-39
2023/12/22 10:20:37;;;;;;;10.60;7.30;;;;;;;2.61;85.72;96267.17;107279;1260;66273;-39
2023/12/22 10:23:04;;;;;;;11.10;7.90;;;;;;;2.69;85.90;96266.71;106518;1260;1002964;-39
2023/12/22 10:25:32;;;;;;;13.40;8.30;;;;;;;2.70;86.11;96263.59;107270;1260;59659;-39
2023/12/22 10:28:01;;;;;;;11.00;8.80;;;;;;;2.69;86.23;96267.63;107227;1262;61455;-39
2023/12/22 10:30:29;;;;;;;15.50;9.60;;;;;;;2.68;86.04;96267.32;107369;1256;71812;-39
2023/12/22 10:32:56;;;;;;;11.00;7.70;;;;;;;2.68;86.00;96265.41;107145;1258;67876;-39
2023/12/22 10:35:24;;;;;;;11.00;7.80;;;;;;;2.73;85.81;96264.17;107280;1261;72637;-39
2023/12/22 10:37:53;;;;;;;11.30;7.80;;;;;;;2.77;85.80;96261.88;107128;1256;60128;-39
2023/12/22 10:40:22;;;;;;;13.00;8.10;;;;;;;2.77;85.89;96256.14;107044;1257;60406;-39
2023/12/22 10:42:50;;;;;;;10.30;7.70;;;;;;;2.76;86.04;96256.84;107294;1260;73155;-39
2023/12/22 10:45:18;;;;;;;11.60;7.90;;;;;;;2.74;86.26;96258.08;107088;1262;67988;-39
2023/12/22 10:47:46;;;;;;;11.30;7.80;;;;;;;2.79;86.22;96263.17;107234;1260;71968;-39
2023/12/22 10:50:14;;;;;;;9.50;7.30;;;;;;;2.86;86.12;96253.25;107070;1260;59563;-39
2023/12/22 10:52:42;;;;;;;10.60;7.40;;;;;;;2.86;86.12;96254.98;107232;1257;59573;-39
2023/12/22 10:55:10;;;;;;;10.50;8.20;;;;;;;2.85;86.14;96251.58;107095;1257;71861;-39
2023/12/22 10:57:38;;;;;;;11.50;7.60;;;;;;;2.84;86.37;96250.12;107208;1260;66962;-40
2023/12/22 11:00:07;;;;;;;9.50;7.60;;;;;;;2.92;86.13;96253.47;107249;1260;72705;-39
2023/12/22 11:02:35;;;;;;;9.00;6.60;;;;;;;3.00;85.93;96250.77;107226;1260;60109;-39
2023/12/22 11:05:05;;;;;;;11.90;7.60;;;;;;;3.00;85.55;96249.48;107085;1255;60042;-40
2023/12/22 11:07:37;;;;;;;10.50;7.70;;;;;;;2.97;85.92;96249.25;106546;1258;1003496;-39
2023/12/22 11:10:06;;;;;;;11.20;8.00;;;;;;;2.94;85.86;96247.50;107258;1259;68144;-39
2023/12/22 11:12:35;;;;;;;10.00;7.40;;;;;;;2.92;85.81;96250.64;107230;1260;72748;-39
2023/12/22 11:15:06;;;;;;;9.30;7.60;;;;;;;2.99;85.68;96251.08;107268;1258;63071;-39
2023/12/22 11:17:35;;;;;;;10.10;7.70;;;;;;;3.06;85.57;96251.30;107183;1257;60704;-39
2023/12/22 11:20:04;;;;;;;10.50;7.40;;;;;;;3.07;85.72;96251.77;107246;1258;73080;-39
2023/12/22 11:22:32;;;;;;;11.80;8.10;;;;;;;3.06;85.82;96257.56;107203;1258;66737;-39
2023/12/22 11:24:59;;;;;;;9.60;6.80;;;;;;;3.06;86.03;96255.27;107484;1253;72824;-39
2023/12/22 11:27:28;;;;;;;10.60;7.10;;;;;;;3.13;85.60;96259.16;107621;1254;59625;-39